createdAt,value
2017-08-17T00:03:54.825Z,101378.80
2017-08-17T00:08:56.743Z,101383.31
2017-08-17T00:13:58.682Z,101385.09
2017-08-17T00:19:00.649Z,101382.66
2017-08-17T00:24:02.636Z,101379.13
2017-08-17T00:29:04.563Z,101386.22
2017-08-17T00:34:06.515Z,101381.09
2017-08-17T00:39:08.508Z,101376.07
2017-08-17T00:44:11.223Z,101375.80
2017-08-17T00:49:13.315Z,101369.58
2017-08-17T00:54:16.033Z,101367.59
2017-08-17T00:59:18.579Z,101355.33
2017-08-17T01:04:21.235Z,101364.56
2017-08-17T01:09:24.022Z,101350.00
2017-08-17T01:14:26.947Z,101346.42
2017-08-17T01:19:29.899Z,101341.84
2017-08-17T01:24:32.662Z,101342.77
2017-08-17T01:29:35.454Z,101333.22
2017-08-17T01:34:37.968Z,101325.41
2017-08-17T01:39:40.669Z,101319.16
2017-08-17T01:44:43.735Z,101306.39
2017-08-17T01:49:45.909Z,101295.58
2017-08-17T01:54:47.990Z,101289.17
2017-08-17T01:59:50.049Z,101289.48
2017-08-17T02:04:52.060Z,101284.01
2017-08-17T02:09:54.320Z,101282.19
2017-08-17T02:14:56.621Z,101286.51
2017-08-17T02:19:58.598Z,101284.39
2017-08-17T02:25:00.556Z,101282.70
2017-08-17T02:30:02.516Z,101277.23
2017-08-17T02:35:04.477Z,101267.48
2017-08-17T02:40:06.409Z,101266.36
2017-08-17T02:45:08.407Z,101261.68
2017-08-17T02:50:10.433Z,101245.54
2017-08-17T02:55:12.411Z,101253.89
2017-08-17T03:00:14.374Z,101254.29
2017-08-17T03:05:16.344Z,101245.53
2017-08-17T03:10:19.036Z,101239.52
2017-08-17T03:15:21.007Z,101236.41
2017-08-17T03:20:22.967Z,101241.77
2017-08-17T03:25:25.085Z,101241.58
2017-08-17T03:30:27.262Z,101236.17
2017-08-17T03:35:29.258Z,101238.50
2017-08-17T03:40:31.287Z,101231.62
2017-08-17T03:45:33.234Z,101231.62
2017-08-17T03:50:35.285Z,101215.06
2017-08-17T03:55:38.128Z,101219.11
2017-08-17T04:00:40.225Z,101221.21
2017-08-17T04:05:42.491Z,101217.47
2017-08-17T04:10:45.044Z,101209.61
2017-08-17T04:15:47.033Z,101210.25
2017-08-17T04:20:50.168Z,101210.69
2017-08-17T04:25:53.131Z,101208.20
2017-08-17T04:30:55.953Z,101208.93
2017-08-17T04:35:57.896Z,101204.07
2017-08-17T04:40:59.826Z,101202.59
2017-08-17T04:46:01.865Z,101196.11
2017-08-17T04:51:03.827Z,101195.52
2017-08-17T04:56:30.089Z,101194.97
2017-08-17T05:01:32.067Z,101186.25
2017-08-17T05:06:34.016Z,101186.46
2017-08-17T05:11:36.128Z,101184.09
2017-08-17T05:16:38.108Z,101187.98
2017-08-17T05:21:40.078Z,101180.22
2017-08-17T05:26:47.770Z,101190.43
2017-08-17T05:31:54.498Z,101190.13
2017-08-17T05:36:56.963Z,101185.36
2017-08-17T05:41:58.931Z,101149.83
2017-08-17T05:47:02.373Z,101178.05
2017-08-17T05:52:04.508Z,101179.39
2017-08-17T05:57:07.349Z,101168.98
2017-08-17T06:02:09.309Z,101162.55
2017-08-17T06:07:11.311Z,101162.30
2017-08-17T06:12:14.007Z,101157.21
2017-08-17T06:17:15.955Z,101151.97
2017-08-17T06:22:17.931Z,101144.50
2017-08-17T06:27:19.925Z,101140.45
2017-08-17T06:32:21.910Z,101146.03
2017-08-17T06:37:26.131Z,101136.06
2017-08-17T06:42:28.063Z,101140.34
2017-08-17T06:47:30.007Z,101129.50
2017-08-17T06:52:31.982Z,101137.31
2017-08-17T06:57:33.912Z,101129.23
2017-08-17T07:02:35.862Z,101131.61
2017-08-17T07:07:37.839Z,101121.92
2017-08-17T07:12:39.931Z,101119.24
2017-08-17T07:17:42.474Z,101116.92
2017-08-17T07:22:45.158Z,101120.42
2017-08-17T07:27:47.110Z,101111.78
2017-08-17T07:32:49.121Z,101118.94
2017-08-17T07:37:51.167Z,101122.32
2017-08-17T07:42:53.533Z,101124.05
2017-08-17T07:47:56.245Z,101120.50
2017-08-17T07:52:58.274Z,101117.11
2017-08-17T07:58:00.260Z,101119.09
2017-08-17T08:03:02.686Z,101126.73
2017-08-17T08:08:04.707Z,101131.87
2017-08-17T08:13:06.691Z,101128.97
2017-08-17T08:18:08.663Z,101130.79
2017-08-17T08:23:10.611Z,101129.54
2017-08-17T08:28:12.544Z,101123.75
2017-08-17T08:33:14.491Z,101129.05
2017-08-17T08:38:16.433Z,101122.43
2017-08-17T08:43:18.493Z,101118.40
2017-08-17T08:48:20.481Z,101108.53
2017-08-17T08:53:22.442Z,101106.17
2017-08-17T08:58:24.387Z,101097.58
2017-08-17T09:03:26.394Z,101094.83
2017-08-17T09:08:28.856Z,101086.97
2017-08-17T09:13:30.849Z,101073.50
2017-08-17T09:18:32.764Z,101061.83
2017-08-17T09:23:34.721Z,101052.89
2017-08-17T09:28:36.643Z,101059.98
2017-08-17T09:33:38.572Z,101051.89
2017-08-17T09:38:40.524Z,101045.58
2017-08-17T09:43:42.452Z,101043.45
2017-08-17T09:48:44.400Z,101039.89
2017-08-17T09:53:46.366Z,101042.03
2017-08-17T09:58:48.337Z,101045.09
2017-08-17T10:03:50.327Z,101047.52
2017-08-17T10:08:52.268Z,101040.19
2017-08-17T10:13:54.203Z,101036.02
2017-08-17T10:18:56.893Z,101045.99
2017-08-17T10:23:58.877Z,101024.27
2017-08-17T10:29:00.944Z,101019.82
2017-08-17T10:34:03.262Z,101023.58
2017-08-17T10:39:05.579Z,101018.86
2017-08-17T10:44:07.812Z,101021.04
2017-08-17T10:49:23.223Z,101016.05
2017-08-17T10:54:29.960Z,101020.52
2017-08-17T10:59:33.981Z,101018.33
2017-08-17T11:04:36.203Z,101014.81
2017-08-17T11:09:38.192Z,101005.23
2017-08-17T11:14:40.214Z,101001.38
2017-08-17T11:19:42.226Z,100991.72
2017-08-17T11:24:44.301Z,100992.42
2017-08-17T11:29:46.316Z,100986.06
2017-08-17T11:34:49.150Z,100986.44
2017-08-17T11:39:51.205Z,100982.53
2017-08-17T11:44:53.323Z,100982.70
2017-08-17T11:49:55.279Z,100984.12
2017-08-17T11:54:57.299Z,100984.09
2017-08-17T11:59:59.310Z,100981.00
2017-08-17T12:05:01.291Z,100976.34
2017-08-17T12:10:04.020Z,100979.05
2017-08-17T12:15:06.441Z,100970.43
2017-08-17T12:20:08.896Z,100975.02
2017-08-17T12:25:12.721Z,100969.18
2017-08-17T12:30:23.467Z,100966.72
2017-08-17T12:35:27.152Z,100955.73
2017-08-17T12:40:29.269Z,100953.48
2017-08-17T12:45:31.249Z,100939.33
2017-08-17T12:50:33.205Z,100940.92
2017-08-17T12:55:35.198Z,100929.59
2017-08-17T13:00:37.275Z,100924.05
2017-08-17T13:05:40.140Z,100926.02
2017-08-17T13:10:42.348Z,100924.56
2017-08-17T13:15:44.384Z,100917.91
2017-08-17T13:20:46.424Z,100910.86
2017-08-17T13:25:48.555Z,100910.42
2017-08-17T13:30:50.592Z,100904.21
2017-08-17T13:35:52.619Z,100889.78
2017-08-17T13:40:55.387Z,100886.78
2017-08-17T13:45:58.170Z,100890.84
2017-08-17T13:51:00.118Z,100879.31
2017-08-17T13:56:02.207Z,100873.84
2017-08-17T14:01:09.711Z,100876.25
2017-08-17T14:06:11.916Z,100856.73
2017-08-17T14:11:14.618Z,100862.91
2017-08-17T14:16:16.602Z,100868.59
2017-08-17T14:21:18.811Z,100861.52
2017-08-17T14:26:20.836Z,100868.77
2017-08-17T14:31:22.892Z,100873.20
2017-08-17T14:36:24.886Z,100878.78
2017-08-17T14:41:26.910Z,100879.38
2017-08-17T14:46:28.879Z,100877.16
2017-08-17T14:51:30.928Z,100875.19
2017-08-17T14:56:33.658Z,100871.04
2017-08-17T15:01:35.707Z,100875.26
2017-08-17T15:06:37.756Z,100872.54
2017-08-17T15:11:39.683Z,100873.61
2017-08-17T15:16:41.632Z,100881.12
2017-08-17T15:21:43.602Z,100899.81
2017-08-17T15:26:45.563Z,100930.09
2017-08-17T15:31:47.539Z,100952.31
2017-08-17T15:36:49.623Z,100957.23
2017-08-17T15:41:51.592Z,100957.20
2017-08-17T15:46:53.548Z,100949.86
2017-08-17T15:51:55.562Z,100939.33
2017-08-17T15:56:57.559Z,100940.04
2017-08-17T16:01:59.525Z,100952.28
2017-08-17T16:07:01.531Z,100928.87
2017-08-17T16:12:03.536Z,100935.24
2017-08-17T16:17:06.228Z,100938.23
2017-08-17T16:22:08.235Z,100951.47
2017-08-17T16:27:10.935Z,100950.13
2017-08-17T16:32:13.061Z,100961.39
2017-08-17T16:37:15.796Z,100959.05
2017-08-17T16:42:18.579Z,100952.88
2017-08-17T16:47:21.322Z,100947.02
2017-08-17T16:52:23.438Z,100943.39
2017-08-17T16:57:25.532Z,100943.88
2017-08-17T17:02:27.462Z,100938.05
2017-08-17T17:07:29.496Z,100937.28
2017-08-17T17:12:33.058Z,100924.23
2017-08-17T17:17:35.173Z,100931.31
2017-08-17T17:22:37.921Z,100928.77
2017-08-17T17:27:39.904Z,100981.11
2017-08-17T17:32:42.606Z,100965.60
2017-08-17T17:37:44.589Z,100939.20
2017-08-17T17:42:46.540Z,100929.03
2017-08-17T17:47:48.584Z,100931.06
2017-08-17T17:52:50.522Z,100920.64
2017-08-17T17:57:52.649Z,100938.87
2017-08-17T18:02:54.676Z,100933.66
2017-08-17T18:07:57.618Z,100938.09
2017-08-17T18:12:59.654Z,100932.83
2017-08-17T18:18:01.691Z,100916.98
2017-08-17T18:23:03.662Z,100948.74
2017-08-17T18:28:05.708Z,100969.33
2017-08-17T18:33:07.708Z,100964.20
2017-08-17T18:38:09.669Z,100940.17
2017-08-17T18:43:11.665Z,100968.58
2017-08-17T18:48:13.747Z,100960.66
2017-08-17T18:53:16.000Z,100974.61
2017-08-17T18:58:18.615Z,100967.38
2017-08-17T19:03:22.874Z,100975.86
2017-08-17T19:08:25.158Z,100976.77
2017-08-17T19:13:28.810Z,100963.97
2017-08-17T19:18:30.885Z,100959.27
2017-08-17T19:23:32.952Z,100979.09
2017-08-17T19:28:37.120Z,100971.73
2017-08-17T19:33:42.999Z,100983.61
2017-08-17T19:38:48.987Z,100978.53
2017-08-17T19:43:54.980Z,100987.62
2017-08-17T19:48:57.167Z,100989.69
2017-08-17T19:53:59.732Z,100988.00
2017-08-17T19:59:02.232Z,100982.06
2017-08-17T20:04:05.352Z,100974.56
2017-08-17T20:09:07.331Z,100974.36
2017-08-17T20:14:09.260Z,100974.96
2017-08-17T20:19:11.389Z,100961.99
2017-08-17T20:24:13.483Z,100965.73
2017-08-17T20:29:15.454Z,100959.53
2017-08-17T20:34:17.438Z,100958.84
2017-08-17T20:39:19.447Z,100957.77
2017-08-17T20:44:21.540Z,100955.22
2017-08-17T20:49:23.515Z,100950.22
2017-08-17T20:54:25.761Z,100956.28
2017-08-17T20:59:28.619Z,100957.23
2017-08-17T21:04:31.584Z,100962.52
2017-08-17T21:09:33.647Z,100961.17
2017-08-17T21:14:35.688Z,100963.70
2017-08-17T21:19:37.737Z,100967.27
2017-08-17T21:24:39.711Z,100960.16
2017-08-17T21:29:41.701Z,100967.80
2017-08-17T21:34:43.631Z,100966.43
2017-08-17T21:39:45.613Z,100968.36
2017-08-17T21:44:47.765Z,100973.14
2017-08-17T21:49:49.867Z,100967.53
2017-08-17T21:54:52.588Z,100964.02
2017-08-17T21:59:54.523Z,100963.08
2017-08-17T22:04:56.554Z,100971.37
2017-08-17T22:09:58.559Z,100966.47
2017-08-17T22:15:00.549Z,100963.42
2017-08-17T22:20:03.256Z,100958.44
2017-08-17T22:25:05.277Z,100955.13
2017-08-17T22:30:07.274Z,100953.66
2017-08-17T22:35:09.263Z,100952.37
2017-08-17T22:40:11.249Z,100952.94
2017-08-17T22:45:13.227Z,100942.69
2017-08-17T22:50:15.197Z,100950.74
2017-08-17T22:55:17.888Z,100944.90
2017-08-17T23:00:19.949Z,100927.75
2017-08-17T23:05:22.023Z,100945.58
2017-08-17T23:10:24.077Z,100948.38
2017-08-17T23:15:26.154Z,100961.54
2017-08-17T23:20:28.254Z,100949.00
2017-08-17T23:25:30.296Z,100931.01
2017-08-17T23:30:32.301Z,100937.68
2017-08-17T23:35:35.041Z,100930.77
2017-08-17T23:40:37.049Z,100928.54
2017-08-17T23:45:39.037Z,100917.38
2017-08-17T23:50:40.992Z,100905.36
2017-08-17T23:55:42.939Z,100912.73
